sensor_id;sensor_type;location;lat;lon;timestamp;pressure;altitude;pressure_sealevel;temperature;humidity
42727;BME280;28372;56.832;60.658;2024-01-30T00:01:31;98114.16;;;-2.80;51.00
42727;BME280;28372;56.832;60.658;2024-01-30T00:03:59;98105.19;;;-2.84;50.59
42727;BME280;28372;56.832;60.658;2024-01-30T00:06:27;98092.78;;;-2.88;51.94
42727;BME280;28372;56.832;60.658;2024-01-30T00:08:55;98109.97;;;-2.86;51.63
42727;BME280;28372;56.832;60.658;2024-01-30T00:11:23;98110.00;;;-2.91;56.14
42727;BME280;28372;56.832;60.658;2024-01-30T00:13:54;98097.91;;;-3.02;54.70
42727;BME280;28372;56.832;60.658;2024-01-30T00:16:29;98094.91;;;-2.90;52.59
42727;BME280;28372;56.832;60.658;2024-01-30T00:18:57;98086.19;;;-2.91;52.06
42727;BME280;28372;56.832;60.658;2024-01-30T00:21:25;98085.94;;;-2.95;54.43
42727;BME280;28372;56.832;60.658;2024-01-30T00:23:53;98083.50;;;-2.86;52.88
42727;BME280;28372;56.832;60.658;2024-01-30T00:26:23;98089.84;;;-2.87;50.88
42727;BME280;28372;56.832;60.658;2024-01-30T00:28:51;98080.63;;;-2.95;51.19
42727;BME280;28372;56.832;60.658;2024-01-30T00:31:19;98093.56;;;-2.88;50.69
42727;BME280;28372;56.832;60.658;2024-01-30T00:33:47;98085.94;;;-2.95;51.59
42727;BME280;28372;56.832;60.658;2024-01-30T00:36:15;98080.41;;;-2.98;51.66
42727;BME280;28372;56.832;60.658;2024-01-30T00:38:43;98075.34;;;-2.95;51.29
42727;BME280;28372;56.832;60.658;2024-01-30T00:41:12;98074.28;;;-2.94;50.96
42727;BME280;28372;56.832;60.658;2024-01-30T00:43:40;98062.63;;;-2.93;50.28
42727;BME280;28372;56.832;60.658;2024-01-30T00:46:07;98068.72;;;-2.92;50.78
42727;BME280;28372;56.832;60.658;2024-01-30T00:48:35;98065.56;;;-2.94;51.74
42727;BME280;28372;56.832;60.658;2024-01-30T00:51:03;98064.00;;;-3.00;52.02
42727;BME280;28372;56.832;60.658;2024-01-30T00:53:31;98060.78;;;-2.92;51.59
42727;BME280;28372;56.832;60.658;2024-01-30T00:56:00;98064.44;;;-2.88;51.40
42727;BME280;28372;56.832;60.658;2024-01-30T00:58:28;98044.16;;;-2.98;50.56
42727;BME280;28372;56.832;60.658;2024-01-30T01:00:55;98038.56;;;-2.96;50.11
42727;BME280;28372;56.832;60.658;2024-01-30T01:03:23;98032.78;;;-2.98;50.53
42727;BME280;28372;56.832;60.658;2024-01-30T01:05:51;98045.66;;;-2.86;49.87
42727;BME280;28372;56.832;60.658;2024-01-30T01:08:19;98041.38;;;-2.82;50.21
42727;BME280;28372;56.832;60.658;2024-01-30T01:10:48;98042.50;;;-2.88;50.48
42727;BME280;28372;56.832;60.658;2024-01-30T01:13:16;98040.94;;;-2.95;50.16
42727;BME280;28372;56.832;60.658;2024-01-30T01:15:44;98048.56;;;-2.88;49.43
42727;BME280;28372;56.832;60.658;2024-01-30T01:18:12;98055.25;;;-2.96;49.98
42727;BME280;28372;56.832;60.658;2024-01-30T01:20:41;98052.63;;;-3.01;49.92
42727;BME280;28372;56.832;60.658;2024-01-30T01:23:12;98042.06;;;-3.01;51.04
42727;BME280;28372;56.832;60.658;2024-01-30T01:25:41;98033.88;;;-3.04;50.42
42727;BME280;28372;56.832;60.658;2024-01-30T01:28:10;98037.75;;;-2.91;51.92
42727;BME280;28372;56.832;60.658;2024-01-30T01:30:40;98033.50;;;-2.87;50.97
42727;BME280;28372;56.832;60.658;2024-01-30T01:33:09;98032.66;;;-2.83;50.23
42727;BME280;28372;56.832;60.658;2024-01-30T01:35:38;98015.28;;;-2.94;50.42
42727;BME280;28372;56.832;60.658;2024-01-30T01:38:06;98025.56;;;-2.87;50.00
42727;BME280;28372;56.832;60.658;2024-01-30T01:40:34;98007.66;;;-3.01;51.36
42727;BME280;28372;56.832;60.658;2024-01-30T01:43:03;98004.13;;;-2.91;50.22
42727;BME280;28372;56.832;60.658;2024-01-30T01:45:32;98019.19;;;-2.86;50.52
42727;BME280;28372;56.832;60.658;2024-01-30T01:48:00;98022.34;;;-2.84;50.11
42727;BME280;28372;56.832;60.658;2024-01-30T01:50:28;98015.44;;;-2.80;50.52
42727;BME280;28372;56.832;60.658;2024-01-30T01:52:58;98010.13;;;-2.80;50.19
42727;BME280;28372;56.832;60.658;2024-01-30T01:55:29;98014.59;;;-2.76;51.01
42727;BME280;28372;56.832;60.658;2024-01-30T01:57:58;97983.22;;;-2.87;50.44
42727;BME280;28372;56.832;60.658;2024-01-30T02:00:26;98001.47;;;-2.86;50.38
42727;BME280;28372;56.832;60.658;2024-01-30T02:02:54;98007.25;;;-2.84;50.58
42727;BME280;28372;56.832;60.658;2024-01-30T02:05:23;97993.72;;;-2.82;51.05
42727;BME280;28372;56.832;60.658;2024-01-30T02:07:57;97992.09;;;-2.78;50.20
42727;BME280;28372;56.832;60.658;2024-01-30T02:10:31;97992.34;;;-2.74;50.06
42727;BME280;28372;56.832;60.658;2024-01-30T02:12:59;97985.19;;;-2.74;50.27
42727;BME280;28372;56.832;60.658;2024-01-30T02:15:27;97988.16;;;-2.81;50.73
42727;BME280;28372;56.832;60.658;2024-01-30T02:18:00;97983.38;;;-2.79;50.71
42727;BME280;28372;56.832;60.658;2024-01-30T02:20:54;97995.97;;;-2.65;50.95
42727;BME280;28372;56.832;60.658;2024-01-30T02:23:24;97985.75;;;-2.77;50.74
42727;BME280;28372;56.832;60.658;2024-01-30T02:25:53;97988.88;;;-2.70;50.81
42727;BME280;28372;56.832;60.658;2024-01-30T02:28:24;97975.88;;;-2.66;51.02
42727;BME280;28372;56.832;60.658;2024-01-30T02:30:53;97976.66;;;-2.66;50.79
42727;BME280;28372;56.832;60.658;2024-01-30T02:33:21;97971.34;;;-2.66;50.08
42727;BME280;28372;56.832;60.658;2024-01-30T02:35:49;97963.97;;;-2.69;49.90
42727;BME280;28372;56.832;60.658;2024-01-30T02:38:17;97963.66;;;-2.62;50.98
42727;BME280;28372;56.832;60.658;2024-01-30T02:40:44;97962.22;;;-2.54;50.55
42727;BME280;28372;56.832;60.658;2024-01-30T02:43:12;97940.56;;;-2.56;50.20
42727;BME280;28372;56.832;60.658;2024-01-30T02:45:41;97958.72;;;-2.50;50.25
42727;BME280;28372;56.832;60.658;2024-01-30T02:48:11;97951.03;;;-2.46;50.78
42727;BME280;28372;56.832;60.658;2024-01-30T02:50:40;97939.41;;;-2.50;50.82
42727;BME280;28372;56.832;60.658;2024-01-30T02:53:08;97943.09;;;-2.46;50.75
42727;BME280;28372;56.832;60.658;2024-01-30T02:55:36;97950.97;;;-2.41;50.49
42727;BME280;28372;56.832;60.658;2024-01-30T02:58:06;97933.25;;;-2.46;51.10
42727;BME280;28372;56.832;60.658;2024-01-30T03:00:34;97937.72;;;-2.41;51.19
42727;BME280;28372;56.832;60.658;2024-01-30T03:03:03;97936.72;;;-2.45;51.36
42727;BME280;28372;56.832;60.658;2024-01-30T03:05:30;97940.38;;;-2.41;52.36
42727;BME280;28372;56.832;60.658;2024-01-30T03:07:58;97933.50;;;-2.42;51.98
42727;BME280;28372;56.832;60.658;2024-01-30T03:10:27;97934.50;;;-2.38;51.99
42727;BME280;28372;56.832;60.658;2024-01-30T03:12:55;97935.00;;;-2.36;51.90
42727;BME280;28372;56.832;60.658;2024-01-30T03:15:23;97927.88;;;-2.35;52.13
42727;BME280;28372;56.832;60.658;2024-01-30T03:17:51;97927.06;;;-2.36;52.38
42727;BME280;28372;56.832;60.658;2024-01-30T03:20:19;97920.47;;;-2.38;51.23
42727;BME280;28372;56.832;60.658;2024-01-30T03:22:47;97919.69;;;-2.39;51.63
42727;BME280;28372;56.832;60.658;2024-01-30T03:25:18;97932.31;;;-2.31;51.77
42727;BME280;28372;56.832;60.658;2024-01-30T03:27:46;97916.25;;;-2.39;51.43
42727;BME280;28372;56.832;60.658;2024-01-30T03:30:14;97916.75;;;-2.37;51.10
42727;BME280;28372;56.832;60.658;2024-01-30T03:32:44;97921.22;;;-2.33;51.34
42727;BME280;28372;56.832;60.658;2024-01-30T03:35:14;97926.22;;;-2.31;50.83
42727;BME280;28372;56.832;60.658;2024-01-30T03:37:42;97926.44;;;-2.28;50.44
42727;BME280;28372;56.832;60.658;2024-01-30T03:40:10;97925.09;;;-2.25;50.45
42727;BME280;28372;56.832;60.658;2024-01-30T03:42:41;97914.25;;;-2.29;51.01
42727;BME280;28372;56.832;60.658;2024-01-30T03:45:09;97916.56;;;-2.22;50.94
42727;BME280;28372;56.832;60.658;2024-01-30T03:47:37;97915.78;;;-2.22;50.81
42727;BME280;28372;56.832;60.658;2024-01-30T03:50:05;97915.50;;;-2.21;50.30
42727;BME280;28372;56.832;60.658;2024-01-30T03:52:33;97907.31;;;-2.25;50.47
42727;BME280;28372;56.832;60.658;2024-01-30T03:55:00;97907.06;;;-2.23;50.52
42727;BME280;28372;56.832;60.658;2024-01-30T03:57:29;97910.97;;;-2.20;50.68
42727;BME280;28372;56.832;60.658;2024-01-30T03:59:57;97915.22;;;-2.19;49.88
42727;BME280;28372;56.832;60.658;2024-01-30T04:02:38;97905.13;;;-2.17;50.45
42727;BME280;28372;56.832;60.658;2024-01-30T04:05:07;97898.66;;;-2.30;50.89
42727;BME280;28372;56.832;60.658;2024-01-30T04:07:36;97903.66;;;-2.29;51.40
42727;BME280;28372;56.832;60.658;2024-01-30T04:10:04;97893.63;;;-2.32;51.43
42727;BME280;28372;56.832;60.658;2024-01-30T04:12:34;97897.38;;;-2.33;51.62
42727;BME280;28372;56.832;60.658;2024-01-30T04:15:02;97880.28;;;-2.46;51.96
42727;BME280;28372;56.832;60.658;2024-01-30T04:17:31;97884.53;;;-2.45;51.59
42727;BME280;28372;56.832;60.658;2024-01-30T04:20:00;97869.22;;;-2.48;51.95
42727;BME280;28372;56.832;60.658;2024-01-30T04:22:31;97880.25;;;-2.41;51.60
42727;BME280;28372;56.832;60.658;2024-01-30T04:25:01;97877.97;;;-2.28;50.85
42727;BME280;28372;56.832;60.658;2024-01-30T04:27:29;97881.13;;;-2.26;50.64
42727;BME280;28372;56.832;60.658;2024-01-30T04:30:00;97879.31;;;-2.31;50.29
42727;BME280;28372;56.832;60.658;2024-01-30T04:32:32;97869.06;;;-2.37;50.59
42727;BME280;28372;56.832;60.658;2024-01-30T04:35:01;97875.22;;;-2.42;50.63
42727;BME280;28372;56.832;60.658;2024-01-30T04:37:32;97874.50;;;-2.48;51.11
42727;BME280;28372;56.832;60.658;2024-01-30T04:40:01;97876.44;;;-2.53;51.27
42727;BME280;28372;56.832;60.658;2024-01-30T04:42:29;97862.31;;;-2.68;51.12
42727;BME280;28372;56.832;60.658;2024-01-30T04:45:00;97874.34;;;-2.56;51.83
42727;BME280;28372;56.832;60.658;2024-01-30T04:47:32;97869.09;;;-2.62;51.52
42727;BME280;28372;56.832;60.658;2024-01-30T04:50:01;97876.91;;;-2.51;51.51
42727;BME280;28372;56.832;60.658;2024-01-30T04:52:38;97879.47;;;-2.41;52.32
42727;BME280;28372;56.832;60.658;2024-01-30T04:55:37;97870.13;;;-2.38;50.89
42727;BME280;28372;56.832;60.658;2024-01-30T04:58:05;97879.66;;;-2.37;51.04
42727;BME280;28372;56.832;60.658;2024-01-30T05:00:35;97867.88;;;-2.26;50.66
42727;BME280;28372;56.832;60.658;2024-01-30T05:03:04;97861.69;;;-2.41;50.74
42727;BME280;28372;56.832;60.658;2024-01-30T05:05:32;97875.94;;;-2.36;51.02
42727;BME280;28372;56.832;60.658;2024-01-30T05:08:00;97852.31;;;-2.52;51.69
42727;BME280;28372;56.832;60.658;2024-01-30T05:10:28;97856.06;;;-2.34;50.08
42727;BME280;28372;56.832;60.658;2024-01-30T05:12:56;97862.66;;;-2.31;50.23
42727;BME280;28372;56.832;60.658;2024-01-30T05:15:25;97856.84;;;-2.33;50.05
42727;BME280;28372;56.832;60.658;2024-01-30T05:17:53;97855.06;;;-2.38;50.44
42727;BME280;28372;56.832;60.658;2024-01-30T05:20:22;97854.91;;;-2.47;51.24
42727;BME280;28372;56.832;60.658;2024-01-30T05:22:49;97853.66;;;-2.54;50.86
42727;BME280;28372;56.832;60.658;2024-01-30T05:25:17;97852.81;;;-2.50;51.47
42727;BME280;28372;56.832;60.658;2024-01-30T05:27:45;97836.03;;;-2.64;52.49
42727;BME280;28372;56.832;60.658;2024-01-30T05:30:13;97845.00;;;-2.60;52.99
42727;BME280;28372;56.832;60.658;2024-01-30T05:32:42;97834.81;;;-2.72;53.33
42727;BME280;28372;56.832;60.658;2024-01-30T05:35:12;97845.31;;;-2.67;54.00
42727;BME280;28372;56.832;60.658;2024-01-30T05:37:41;97837.91;;;-2.65;53.71
42727;BME280;28372;56.832;60.658;2024-01-30T05:40:10;97828.72;;;-2.72;55.01
42727;BME280;28372;56.832;60.658;2024-01-30T05:42:41;97833.81;;;-2.57;56.57
42727;BME280;28372;56.832;60.658;2024-01-30T05:45:09;97825.53;;;-2.50;55.03
42727;BME280;28372;56.832;60.658;2024-01-30T05:47:37;97821.09;;;-2.36;53.00
42727;BME280;28372;56.832;60.658;2024-01-30T05:50:05;97810.59;;;-2.41;54.41
42727;BME280;28372;56.832;60.658;2024-01-30T05:52:33;97828.28;;;-2.36;54.05
42727;BME280;28372;56.832;60.658;2024-01-30T05:55:04;97811.16;;;-2.25;53.20
42727;BME280;28372;56.832;60.658;2024-01-30T05:57:34;97798.91;;;-2.40;53.84
42727;BME280;28372;56.832;60.658;2024-01-30T06:00:02;97802.28;;;-2.34;53.51
42727;BME280;28372;56.832;60.658;2024-01-30T06:02:34;97797.44;;;-2.27;53.87
42727;BME280;28372;56.832;60.658;2024-01-30T06:05:02;97808.28;;;-2.29;52.24
42727;BME280;28372;56.832;60.658;2024-01-30T06:07:31;97809.72;;;-2.36;54.55
42727;BME280;28372;56.832;60.658;2024-01-30T06:10:04;97807.38;;;-2.38;54.36
42727;BME280;28372;56.832;60.658;2024-01-30T06:12:37;97798.84;;;-2.35;54.92
42727;BME280;28372;56.832;60.658;2024-01-30T06:15:06;97803.66;;;-2.37;54.90
42727;BME280;28372;56.832;60.658;2024-01-30T06:17:34;97801.22;;;-2.33;55.38
42727;BME280;28372;56.832;60.658;2024-01-30T06:20:04;97796.97;;;-2.34;57.05
42727;BME280;28372;56.832;60.658;2024-01-30T06:22:34;97796.50;;;-2.36;54.69
42727;BME280;28372;56.832;60.658;2024-01-30T06:25:02;97795.13;;;-2.34;55.07
42727;BME280;28372;56.832;60.658;2024-01-30T06:27:31;97780.22;;;-2.49;54.19
42727;BME280;28372;56.832;60.658;2024-01-30T06:30:01;97781.75;;;-2.43;55.18
42727;BME280;28372;56.832;60.658;2024-01-30T06:32:30;97780.16;;;-2.44;55.76
42727;BME280;28372;56.832;60.658;2024-01-30T06:35:03;97773.38;;;-2.31;53.53
42727;BME280;28372;56.832;60.658;2024-01-30T06:37:33;97764.84;;;-2.28;53.15
42727;BME280;28372;56.832;60.658;2024-01-30T06:40:04;97769.31;;;-2.09;52.54
42727;BME280;28372;56.832;60.658;2024-01-30T06:42:52;97761.53;;;-2.00;53.17
42727;BME280;28372;56.832;60.658;2024-01-30T06:45:24;97765.06;;;-1.91;51.88
42727;BME280;28372;56.832;60.658;2024-01-30T06:47:56;97758.91;;;-1.86;52.04
42727;BME280;28372;56.832;60.658;2024-01-30T06:50:23;97749.03;;;-1.81;51.67
42727;BME280;28372;56.832;60.658;2024-01-30T06:52:51;97748.03;;;-1.85;52.37
42727;BME280;28372;56.832;60.658;2024-01-30T06:55:19;97755.31;;;-1.77;51.28
42727;BME280;28372;56.832;60.658;2024-01-30T06:57:47;97738.97;;;-1.84;51.79
42727;BME280;28372;56.832;60.658;2024-01-30T07:00:17;97738.31;;;-1.76;51.20
42727;BME280;28372;56.832;60.658;2024-01-30T07:02:47;97724.38;;;-2.14;52.93
42727;BME280;28372;56.832;60.658;2024-01-30T07:05:17;97731.19;;;-1.94;51.62
42727;BME280;28372;56.832;60.658;2024-01-30T07:07:46;97734.16;;;-1.96;52.39
42727;BME280;28372;56.832;60.658;2024-01-30T07:10:14;97730.69;;;-2.10;53.41
42727;BME280;28372;56.832;60.658;2024-01-30T07:12:43;97713.69;;;-2.09;51.87
42727;BME280;28372;56.832;60.658;2024-01-30T07:15:13;97717.91;;;-1.75;51.13
42727;BME280;28372;56.832;60.658;2024-01-30T07:17:44;97708.44;;;-1.81;50.75
42727;BME280;28372;56.832;60.658;2024-01-30T07:20:15;97707.75;;;-1.87;51.51
42727;BME280;28372;56.832;60.658;2024-01-30T07:22:47;97700.34;;;-1.71;51.79
42727;BME280;28372;56.832;60.658;2024-01-30T07:25:15;97700.81;;;-1.69;51.29
42727;BME280;28372;56.832;60.658;2024-01-30T07:27:48;97703.56;;;-1.60;50.64
42727;BME280;28372;56.832;60.658;2024-01-30T07:30:17;97705.13;;;-1.59;50.16
42727;BME280;28372;56.832;60.658;2024-01-30T07:32:46;97694.44;;;-1.54;50.49
42727;BME280;28372;56.832;60.658;2024-01-30T07:35:14;97686.38;;;-1.63;50.71
42727;BME280;28372;56.832;60.658;2024-01-30T07:37:42;97692.78;;;-1.50;50.12
42727;BME280;28372;56.832;60.658;2024-01-30T07:40:11;97667.72;;;-1.44;50.29
42727;BME280;28372;56.832;60.658;2024-01-30T07:42:44;97678.25;;;-1.52;51.00
42727;BME280;28372;56.832;60.658;2024-01-30T07:45:15;97679.00;;;-1.38;50.30
42727;BME280;28372;56.832;60.658;2024-01-30T07:47:43;97674.41;;;-1.46;50.03
42727;BME280;28372;56.832;60.658;2024-01-30T07:50:11;97669.47;;;-1.53;51.07
42727;BME280;28372;56.832;60.658;2024-01-30T07:52:39;97650.81;;;-1.62;51.07
42727;BME280;28372;56.832;60.658;2024-01-30T07:56:17;97657.09;;;-1.44;50.73
42727;BME280;28372;56.832;60.658;2024-01-30T07:58:42;97649.16;;;-1.58;50.44
42727;BME280;28372;56.832;60.658;2024-01-30T08:01:11;97639.75;;;-1.64;50.92
42727;BME280;28372;56.832;60.658;2024-01-30T08:03:40;97649.16;;;-1.44;50.67
42727;BME280;28372;56.832;60.658;2024-01-30T08:06:09;97657.19;;;-1.49;50.48
42727;BME280;28372;56.832;60.658;2024-01-30T08:08:38;97644.91;;;-1.45;50.75
42727;BME280;28372;56.832;60.658;2024-01-30T08:11:07;97647.78;;;-1.41;50.97
42727;BME280;28372;56.832;60.658;2024-01-30T08:13:38;97636.47;;;-1.33;49.61
42727;BME280;28372;56.832;60.658;2024-01-30T08:16:06;97642.94;;;-1.39;50.55
42727;BME280;28372;56.832;60.658;2024-01-30T08:18:35;97626.66;;;-1.46;50.58
42727;BME280;28372;56.832;60.658;2024-01-30T08:21:04;97622.13;;;-1.32;50.70
42727;BME280;28372;56.832;60.658;2024-01-30T08:23:33;97624.28;;;-1.34;50.32
42727;BME280;28372;56.832;60.658;2024-01-30T08:26:03;97620.25;;;-1.31;50.77
42727;BME280;28372;56.832;60.658;2024-01-30T08:28:32;97627.97;;;-1.07;49.59
42727;BME280;28372;56.832;60.658;2024-01-30T08:31:00;97617.88;;;-1.19;50.07
42727;BME280;28372;56.832;60.658;2024-01-30T08:33:30;97616.66;;;-0.99;49.72
42727;BME280;28372;56.832;60.658;2024-01-30T08:35:59;97610.47;;;-1.08;49.70
42727;BME280;28372;56.832;60.658;2024-01-30T08:38:27;97594.63;;;-0.99;50.27
42727;BME280;28372;56.832;60.658;2024-01-30T08:40:55;97599.69;;;-0.89;49.69
42727;BME280;28372;56.832;60.658;2024-01-30T08:43:25;97592.47;;;-0.75;49.61
42727;BME280;28372;56.832;60.658;2024-01-30T08:45:54;97593.00;;;-0.87;49.36
42727;BME280;28372;56.832;60.658;2024-01-30T08:48:21;97584.25;;;-0.87;49.26
42727;BME280;28372;56.832;60.658;2024-01-30T08:50:50;97596.63;;;-0.82;49.49
42727;BME280;28372;56.832;60.658;2024-01-30T08:53:18;97593.13;;;-0.92;49.98
42727;BME280;28372;56.832;60.658;2024-01-30T08:55:46;97576.53;;;-0.97;49.69
42727;BME280;28372;56.832;60.658;2024-01-30T08:58:14;97582.19;;;-0.67;49.53
42727;BME280;28372;56.832;60.658;2024-01-30T09:00:43;97587.69;;;-0.64;49.16
42727;BME280;28372;56.832;60.658;2024-01-30T09:03:11;97572.06;;;-0.65;49.18
42727;BME280;28372;56.832;60.658;2024-01-30T09:05:39;97577.78;;;-0.49;49.35
42727;BME280;28372;56.832;60.658;2024-01-30T09:08:06;97574.00;;;-0.57;49.75
42727;BME280;28372;56.832;60.658;2024-01-30T09:10:35;97578.09;;;-0.51;49.51
42727;BME280;28372;56.832;60.658;2024-01-30T09:13:03;97554.31;;;-0.79;49.85
42727;BME280;28372;56.832;60.658;2024-01-30T09:15:32;97559.06;;;-0.44;50.05
42727;BME280;28372;56.832;60.658;2024-01-30T09:18:01;97571.31;;;-0.35;49.23
42727;BME280;28372;56.832;60.658;2024-01-30T09:20:31;97562.84;;;-0.37;49.42
42727;BME280;28372;56.832;60.658;2024-01-30T09:23:01;97560.94;;;-0.45;49.24
42727;BME280;28372;56.832;60.658;2024-01-30T09:25:29;97565.88;;;-0.52;49.23
42727;BME280;28372;56.832;60.658;2024-01-30T09:27:57;97549.81;;;-0.47;48.90
42727;BME280;28372;56.832;60.658;2024-01-30T09:30:24;97553.56;;;-0.48;49.63
42727;BME280;28372;56.832;60.658;2024-01-30T09:32:52;97553.56;;;-0.48;49.29
42727;BME280;28372;56.832;60.658;2024-01-30T09:35:20;97545.00;;;-0.67;49.22
42727;BME280;28372;56.832;60.658;2024-01-30T09:37:48;97547.16;;;-0.78;49.42
42727;BME280;28372;56.832;60.658;2024-01-30T09:40:17;97544.72;;;-0.89;49.83
42727;BME280;28372;56.832;60.658;2024-01-30T09:42:50;97545.94;;;-0.72;50.29
42727;BME280;28372;56.832;60.658;2024-01-30T09:45:19;97533.88;;;-0.47;50.06
42727;BME280;28372;56.832;60.658;2024-01-30T09:47:48;97514.59;;;-0.61;49.00
42727;BME280;28372;56.832;60.658;2024-01-30T09:50:16;97533.59;;;-0.37;48.63
42727;BME280;28372;56.832;60.658;2024-01-30T09:52:46;97526.03;;;-0.21;49.03
42727;BME280;28372;56.832;60.658;2024-01-30T09:55:14;97529.78;;;-0.22;48.63
42727;BME280;28372;56.832;60.658;2024-01-30T09:57:44;97521.25;;;-0.41;48.35
42727;BME280;28372;56.832;60.658;2024-01-30T10:00:14;97519.66;;;-0.11;48.31
42727;BME280;28372;56.832;60.658;2024-01-30T10:02:43;97523.44;;;-0.03;48.61
42727;BME280;28372;56.832;60.658;2024-01-30T10:05:31;97526.16;;;0.23;49.35
42727;BME280;28372;56.832;60.658;2024-01-30T10:08:07;97513.13;;;0.04;47.99
42727;BME280;28372;56.832;60.658;2024-01-30T10:10:40;97514.78;;;-0.18;47.63
42727;BME280;28372;56.832;60.658;2024-01-30T10:13:10;97512.78;;;-0.12;47.95
42727;BME280;28372;56.832;60.658;2024-01-30T10:15:38;97507.16;;;-0.10;47.74
42727;BME280;28372;56.832;60.658;2024-01-30T10:18:10;97515.75;;;-0.13;48.28
42727;BME280;28372;56.832;60.658;2024-01-30T10:20:40;97516.06;;;-0.46;48.11
42727;BME280;28372;56.832;60.658;2024-01-30T10:23:08;97512.56;;;-0.87;49.65
42727;BME280;28372;56.832;60.658;2024-01-30T10:25:37;97497.09;;;-0.62;48.90
42727;BME280;28372;56.832;60.658;2024-01-30T10:28:05;97499.50;;;-0.75;48.80
42727;BME280;28372;56.832;60.658;2024-01-30T10:30:33;97502.81;;;-0.69;49.01
42727;BME280;28372;56.832;60.658;2024-01-30T10:33:02;97487.50;;;-0.72;48.92
42727;BME280;28372;56.832;60.658;2024-01-30T10:35:31;97492.47;;;-0.79;49.33
42727;BME280;28372;56.832;60.658;2024-01-30T10:38:01;97493.19;;;-0.88;49.01
42727;BME280;28372;56.832;60.658;2024-01-30T10:40:31;97499.09;;;-0.68;49.34
42727;BME280;28372;56.832;60.658;2024-01-30T10:43:21;97490.13;;;-0.81;50.14
42727;BME280;28372;56.832;60.658;2024-01-30T10:45:53;97487.50;;;-1.04;49.70
42727;BME280;28372;56.832;60.658;2024-01-30T10:48:26;97487.00;;;-1.06;50.65
42727;BME280;28372;56.832;60.658;2024-01-30T10:50:59;97479.69;;;-1.23;50.61
42727;BME280;28372;56.832;60.658;2024-01-30T10:53:28;97477.53;;;-0.98;49.80
42727;BME280;28372;56.832;60.658;2024-01-30T10:56:00;97483.06;;;-1.08;50.20
42727;BME280;28372;56.832;60.658;2024-01-30T10:58:30;97481.28;;;-1.22;51.07
42727;BME280;28372;56.832;60.658;2024-01-30T11:00:59;97467.28;;;-1.13;49.83
42727;BME280;28372;56.832;60.658;2024-01-30T11:03:31;97464.69;;;-1.05;50.24
42727;BME280;28372;56.832;60.658;2024-01-30T11:06:02;97474.63;;;-1.10;50.32
42727;BME280;28372;56.832;60.658;2024-01-30T11:08:32;97480.00;;;-1.24;50.64
42727;BME280;28372;56.832;60.658;2024-01-30T11:11:08;97477.91;;;-1.13;51.11
42727;BME280;28372;56.832;60.658;2024-01-30T11:13:41;97467.22;;;-0.99;49.65
42727;BME280;28372;56.832;60.658;2024-01-30T11:16:11;97468.59;;;-1.02;50.83
42727;BME280;28372;56.832;60.658;2024-01-30T11:18:38;97482.00;;;-1.07;50.38
42727;BME280;28372;56.832;60.658;2024-01-30T11:21:07;97470.34;;;-0.97;50.75
42727;BME280;28372;56.832;60.658;2024-01-30T11:23:35;97456.78;;;-0.87;49.32
42727;BME280;28372;56.832;60.658;2024-01-30T11:26:06;97450.75;;;-1.10;50.74
42727;BME280;28372;56.832;60.658;2024-01-30T11:28:37;97457.75;;;-0.83;49.73
42727;BME280;28372;56.832;60.658;2024-01-30T11:31:06;97447.72;;;-0.95;49.69
42727;BME280;28372;56.832;60.658;2024-01-30T11:33:35;97449.03;;;-0.83;49.34
42727;BME280;28372;56.832;60.658;2024-01-30T11:36:04;97446.75;;;-0.99;49.80
42727;BME280;28372;56.832;60.658;2024-01-30T11:38:35;97440.22;;;-0.93;50.13
42727;BME280;28372;56.832;60.658;2024-01-30T11:41:06;97442.47;;;-1.09;50.79
42727;BME280;28372;56.832;60.658;2024-01-30T11:43:34;97445.31;;;-1.28;51.21
42727;BME280;28372;56.832;60.658;2024-01-30T11:46:03;97428.94;;;-1.30;51.17
42727;BME280;28372;56.832;60.658;2024-01-30T11:48:35;97432.84;;;-1.27;50.38
42727;BME280;28372;56.832;60.658;2024-01-30T11:51:02;97432.25;;;-1.24;50.67
42727;BME280;28372;56.832;60.658;2024-01-30T11:53:30;97437.31;;;-1.36;51.18
42727;BME280;28372;56.832;60.658;2024-01-30T11:55:58;97437.50;;;-1.56;51.86
42727;BME280;28372;56.832;60.658;2024-01-30T11:58:25;97428.88;;;-1.61;51.95
42727;BME280;28372;56.832;60.658;2024-01-30T12:00:55;97423.88;;;-1.40;50.92
42727;BME280;28372;56.832;60.658;2024-01-30T12:03:24;97418.38;;;-1.44;51.58
42727;BME280;28372;56.832;60.658;2024-01-30T12:05:57;97421.03;;;-1.44;51.92
42727;BME280;28372;56.832;60.658;2024-01-30T12:08:27;97401.25;;;-1.60;51.83
42727;BME280;28372;56.832;60.658;2024-01-30T12:10:58;97406.91;;;-1.53;51.84
42727;BME280;28372;56.832;60.658;2024-01-30T12:13:28;97412.09;;;-1.70;51.90
42727;BME280;28372;56.832;60.658;2024-01-30T12:16:03;97417.28;;;-1.65;52.63
42727;BME280;28372;56.832;60.658;2024-01-30T12:18:31;97404.25;;;-1.76;51.93
42727;BME280;28372;56.832;60.658;2024-01-30T12:21:03;97389.16;;;-1.75;51.75
42727;BME280;28372;56.832;60.658;2024-01-30T12:23:31;97401.38;;;-1.65;51.91
42727;BME280;28372;56.832;60.658;2024-01-30T12:25:59;97410.34;;;-1.75;51.81
42727;BME280;28372;56.832;60.658;2024-01-30T12:28:27;97395.38;;;-1.94;53.34
42727;BME280;28372;56.832;60.658;2024-01-30T12:31:01;97402.97;;;-1.78;52.41
42727;BME280;28372;56.832;60.658;2024-01-30T12:33:30;97397.66;;;-1.78;51.63
42727;BME280;28372;56.832;60.658;2024-01-30T12:36:04;97400.28;;;-1.64;51.68
42727;BME280;28372;56.832;60.658;2024-01-30T12:38:32;97377.88;;;-1.81;52.30
42727;BME280;28372;56.832;60.658;2024-01-30T12:41:01;97394.56;;;-1.80;52.35
42727;BME280;28372;56.832;60.658;2024-01-30T12:43:29;97395.47;;;-1.85;52.04
42727;BME280;28372;56.832;60.658;2024-01-30T12:46:05;97392.25;;;-1.96;53.12
42727;BME280;28372;56.832;60.658;2024-01-30T12:48:34;97386.75;;;-1.99;52.82
42727;BME280;28372;56.832;60.658;2024-01-30T12:51:02;97385.25;;;-1.92;52.69
42727;BME280;28372;56.832;60.658;2024-01-30T12:53:30;97382.19;;;-1.85;52.52
42727;BME280;28372;56.832;60.658;2024-01-30T12:55:58;97385.38;;;-1.97;52.85
42727;BME280;28372;56.832;60.658;2024-01-30T12:58:26;97387.06;;;-1.78;51.57
42727;BME280;28372;56.832;60.658;2024-01-30T13:00:54;97383.81;;;-1.98;52.41
42727;BME280;28372;56.832;60.658;2024-01-30T13:03:23;97374.41;;;-2.04;53.28